sensor_id;sensor_type;location;lat;lon;timestamp;temperature;humidity
2913;DHT22;1466;48.778;9.166;2023-09-18T00:01:28;24.40;94.90
2913;DHT22;1466;48.778;9.166;2023-09-18T00:03:53;24.30;95.00
2913;DHT22;1466;48.778;9.166;2023-09-18T00:06:19;24.30;95.10
2913;DHT22;1466;48.778;9.166;2023-09-18T00:08:45;24.30;95.10
2913;DHT22;1466;48.778;9.166;2023-09-18T00:11:10;24.30;95.10
2913;DHT22;1466;48.778;9.166;2023-09-18T00:13:37;24.30;95.00
2913;DHT22;1466;48.778;9.166;2023-09-18T00:16:03;24.40;95.00
2913;DHT22;1466;48.778;9.166;2023-09-18T00:18:29;24.40;94.90
2913;DHT22;1466;48.778;9.166;2023-09-18T00:20:54;24.50;94.80
2913;DHT22;1466;48.778;9.166;2023-09-18T00:23:20;24.50;94.70
2913;DHT22;1466;48.778;9.166;2023-09-18T00:25:46;24.50;94.70
2913;DHT22;1466;48.778;9.166;2023-09-18T00:28:11;24.40;94.60
2913;DHT22;1466;48.778;9.166;2023-09-18T00:30:38;24.40;94.70
2913;DHT22;1466;48.778;9.166;2023-09-18T00:33:07;24.50;94.70
2913;DHT22;1466;48.778;9.166;2023-09-18T00:35:33;24.50;94.60
2913;DHT22;1466;48.778;9.166;2023-09-18T00:37:58;24.50;94.60
2913;DHT22;1466;48.778;9.166;2023-09-18T00:40:29;24.50;94.50
2913;DHT22;1466;48.778;9.166;2023-09-18T00:42:55;24.60;94.60
2913;DHT22;1466;48.778;9.166;2023-09-18T00:45:20;24.50;94.60
2913;DHT22;1466;48.778;9.166;2023-09-18T00:47:46;24.50;94.70
2913;DHT22;1466;48.778;9.166;2023-09-18T00:50:13;24.50;94.70
2913;DHT22;1466;48.778;9.166;2023-09-18T00:52:40;24.50;94.80
2913;DHT22;1466;48.778;9.166;2023-09-18T00:55:07;24.40;94.90
2913;DHT22;1466;48.778;9.166;2023-09-18T00:57:33;24.40;95.10
2913;DHT22;1466;48.778;9.166;2023-09-18T00:59:59;24.30;95.20
2913;DHT22;1466;48.778;9.166;2023-09-18T01:02:25;24.30;95.30
2913;DHT22;1466;48.778;9.166;2023-09-18T01:04:51;24.30;95.30
2913;DHT22;1466;48.778;9.166;2023-09-18T01:07:17;24.20;95.50
2913;DHT22;1466;48.778;9.166;2023-09-18T01:09:43;24.20;95.60
2913;DHT22;1466;48.778;9.166;2023-09-18T01:12:17;24.20;95.80
2913;DHT22;1466;48.778;9.166;2023-09-18T01:14:55;24.20;95.80
2913;DHT22;1466;48.778;9.166;2023-09-18T01:17:22;24.20;95.80
2913;DHT22;1466;48.778;9.166;2023-09-18T01:19:48;24.20;95.70
2913;DHT22;1466;48.778;9.166;2023-09-18T01:22:16;24.30;95.60
2913;DHT22;1466;48.778;9.166;2023-09-18T01:24:43;24.30;95.40
2913;DHT22;1466;48.778;9.166;2023-09-18T01:27:11;24.30;95.30
2913;DHT22;1466;48.778;9.166;2023-09-18T01:29:38;24.30;95.20
2913;DHT22;1466;48.778;9.166;2023-09-18T01:32:04;24.40;95.30
2913;DHT22;1466;48.778;9.166;2023-09-18T01:34:35;24.40;95.20
2913;DHT22;1466;48.778;9.166;2023-09-18T01:37:03;24.40;95.20
2913;DHT22;1466;48.778;9.166;2023-09-18T01:39:31;24.50;95.10
2913;DHT22;1466;48.778;9.166;2023-09-18T01:42:02;24.50;95.00
2913;DHT22;1466;48.778;9.166;2023-09-18T01:44:29;24.60;95.30
2913;DHT22;1466;48.778;9.166;2023-09-18T01:46:58;24.60;94.90
2913;DHT22;1466;48.778;9.166;2023-09-18T01:49:37;24.60;94.80
2913;DHT22;1466;48.778;9.166;2023-09-18T01:52:04;24.70;94.80
2913;DHT22;1466;48.778;9.166;2023-09-18T01:54:31;24.60;94.90
2913;DHT22;1466;48.778;9.166;2023-09-18T01:56:57;24.50;94.90
2913;DHT22;1466;48.778;9.166;2023-09-18T01:59:23;24.60;94.90
2913;DHT22;1466;48.778;9.166;2023-09-18T02:01:50;24.50;94.80
2913;DHT22;1466;48.778;9.166;2023-09-18T02:04:16;24.60;94.80
2913;DHT22;1466;48.778;9.166;2023-09-18T02:06:43;24.60;94.70
2913;DHT22;1466;48.778;9.166;2023-09-18T02:09:08;24.60;95.20
2913;DHT22;1466;48.778;9.166;2023-09-18T02:11:40;24.50;96.30
2913;DHT22;1466;48.778;9.166;2023-09-18T02:14:06;24.50;96.70
2913;DHT22;1466;48.778;9.166;2023-09-18T02:16:33;24.30;96.90
2913;DHT22;1466;48.778;9.166;2023-09-18T02:18:59;24.40;97.20
2913;DHT22;1466;48.778;9.166;2023-09-18T02:21:25;24.40;97.30
2913;DHT22;1466;48.778;9.166;2023-09-18T02:23:52;24.30;97.80
2913;DHT22;1466;48.778;9.166;2023-09-18T02:26:21;24.30;98.10
2913;DHT22;1466;48.778;9.166;2023-09-18T02:28:47;24.20;98.40
2913;DHT22;1466;48.778;9.166;2023-09-18T02:31:13;24.20;98.50
2913;DHT22;1466;48.778;9.166;2023-09-18T02:33:39;24.20;99.00
2913;DHT22;1466;48.778;9.166;2023-09-18T02:36:05;24.20;98.90
2913;DHT22;1466;48.778;9.166;2023-09-18T02:38:32;24.20;99.00
2913;DHT22;1466;48.778;9.166;2023-09-18T02:40:58;24.20;98.90
2913;DHT22;1466;48.778;9.166;2023-09-18T02:43:24;24.20;98.90
2913;DHT22;1466;48.778;9.166;2023-09-18T02:45:50;24.20;98.60
2913;DHT22;1466;48.778;9.166;2023-09-18T02:48:16;24.20;98.30
2913;DHT22;1466;48.778;9.166;2023-09-18T02:50:42;24.20;98.10
2913;DHT22;1466;48.778;9.166;2023-09-18T02:53:23;24.20;97.80
2913;DHT22;1466;48.778;9.166;2023-09-18T02:55:50;24.20;97.40
2913;DHT22;1466;48.778;9.166;2023-09-18T02:58:17;24.30;96.80
2913;DHT22;1466;48.778;9.166;2023-09-18T03:00:45;24.20;96.60
2913;DHT22;1466;48.778;9.166;2023-09-18T03:03:11;24.20;96.50
2913;DHT22;1466;48.778;9.166;2023-09-18T03:05:38;24.20;96.40
2913;DHT22;1466;48.778;9.166;2023-09-18T03:08:04;24.10;96.30
2913;DHT22;1466;48.778;9.166;2023-09-18T03:10:34;24.10;96.40
2913;DHT22;1466;48.778;9.166;2023-09-18T03:13:01;24.10;96.50
2913;DHT22;1466;48.778;9.166;2023-09-18T03:15:27;24.10;96.70
2913;DHT22;1466;48.778;9.166;2023-09-18T03:17:52;24.00;96.90
2913;DHT22;1466;48.778;9.166;2023-09-18T03:20:18;23.70;97.00
2913;DHT22;1466;48.778;9.166;2023-09-18T03:22:43;23.50;97.60
2913;DHT22;1466;48.778;9.166;2023-09-18T03:25:09;23.50;97.80
2913;DHT22;1466;48.778;9.166;2023-09-18T03:27:35;23.50;97.90
2913;DHT22;1466;48.778;9.166;2023-09-18T03:30:01;23.50;97.80
2913;DHT22;1466;48.778;9.166;2023-09-18T03:32:26;23.50;97.90
2913;DHT22;1466;48.778;9.166;2023-09-18T03:34:52;23.50;98.10
2913;DHT22;1466;48.778;9.166;2023-09-18T03:37:18;23.60;98.40
2913;DHT22;1466;48.778;9.166;2023-09-18T03:39:44;23.60;98.20
2913;DHT22;1466;48.778;9.166;2023-09-18T03:42:09;23.60;98.20
2913;DHT22;1466;48.778;9.166;2023-09-18T03:44:36;23.60;98.30
2913;DHT22;1466;48.778;9.166;2023-09-18T03:47:01;23.60;98.50
2913;DHT22;1466;48.778;9.166;2023-09-18T03:49:29;23.60;98.50
2913;DHT22;1466;48.778;9.166;2023-09-18T03:51:54;23.60;98.70
2913;DHT22;1466;48.778;9.166;2023-09-18T03:54:20;23.60;98.80
2913;DHT22;1466;48.778;9.166;2023-09-18T03:56:45;23.60;98.90
2913;DHT22;1466;48.778;9.166;2023-09-18T03:59:12;23.60;99.00
2913;DHT22;1466;48.778;9.166;2023-09-18T04:01:38;23.60;99.10
2913;DHT22;1466;48.778;9.166;2023-09-18T04:04:03;23.60;99.10
2913;DHT22;1466;48.778;9.166;2023-09-18T04:06:43;23.70;99.00
2913;DHT22;1466;48.778;9.166;2023-09-18T04:09:09;23.70;98.70
2913;DHT22;1466;48.778;9.166;2023-09-18T04:11:35;23.70;98.60
2913;DHT22;1466;48.778;9.166;2023-09-18T04:14:01;23.60;98.50
2913;DHT22;1466;48.778;9.166;2023-09-18T04:16:29;23.70;98.60
2913;DHT22;1466;48.778;9.166;2023-09-18T04:18:56;23.70;98.50
2913;DHT22;1466;48.778;9.166;2023-09-18T04:21:22;23.70;98.40
2913;DHT22;1466;48.778;9.166;2023-09-18T04:23:48;23.70;98.50
2913;DHT22;1466;48.778;9.166;2023-09-18T04:26:13;23.70;98.60
2913;DHT22;1466;48.778;9.166;2023-09-18T04:28:45;23.60;98.70
2913;DHT22;1466;48.778;9.166;2023-09-18T04:31:11;23.60;98.70
2913;DHT22;1466;48.778;9.166;2023-09-18T04:33:37;23.50;98.70
2913;DHT22;1466;48.778;9.166;2023-09-18T04:36:03;23.50;98.70
2913;DHT22;1466;48.778;9.166;2023-09-18T04:38:29;23.50;98.90
2913;DHT22;1466;48.778;9.166;2023-09-18T04:40:58;23.50;98.90
2913;DHT22;1466;48.778;9.166;2023-09-18T04:43:24;23.40;99.00
2913;DHT22;1466;48.778;9.166;2023-09-18T04:45:50;23.40;99.10
2913;DHT22;1466;48.778;9.166;2023-09-18T04:48:16;23.40;99.10
2913;DHT22;1466;48.778;9.166;2023-09-18T04:50:42;23.50;99.10
2913;DHT22;1466;48.778;9.166;2023-09-18T04:53:08;23.50;99.00
2913;DHT22;1466;48.778;9.166;2023-09-18T04:55:34;23.60;99.10
2913;DHT22;1466;48.778;9.166;2023-09-18T04:58:00;23.60;99.10
2913;DHT22;1466;48.778;9.166;2023-09-18T05:00:25;23.60;99.00
2913;DHT22;1466;48.778;9.166;2023-09-18T05:02:52;23.60;99.00
2913;DHT22;1466;48.778;9.166;2023-09-18T05:05:18;23.70;99.10
2913;DHT22;1466;48.778;9.166;2023-09-18T05:07:44;23.70;99.00
2913;DHT22;1466;48.778;9.166;2023-09-18T05:10:10;23.70;99.10
2913;DHT22;1466;48.778;9.166;2023-09-18T05:12:38;23.70;99.20
2913;DHT22;1466;48.778;9.166;2023-09-18T05:15:04;23.70;99.30
2913;DHT22;1466;48.778;9.166;2023-09-18T05:17:47;23.70;99.40
2913;DHT22;1466;48.778;9.166;2023-09-18T05:20:13;23.70;99.40
2913;DHT22;1466;48.778;9.166;2023-09-18T05:22:42;23.70;99.40
2913;DHT22;1466;48.778;9.166;2023-09-18T05:25:09;23.70;99.50
2913;DHT22;1466;48.778;9.166;2023-09-18T05:27:36;23.60;99.60
2913;DHT22;1466;48.778;9.166;2023-09-18T05:30:13;23.50;99.80
2913;DHT22;1466;48.778;9.166;2023-09-18T05:32:41;23.50;99.90
2913;DHT22;1466;48.778;9.166;2023-09-18T05:35:07;23.40;99.90
2913;DHT22;1466;48.778;9.166;2023-09-18T05:37:36;23.40;99.90
2913;DHT22;1466;48.778;9.166;2023-09-18T05:40:06;23.30;99.90
2913;DHT22;1466;48.778;9.166;2023-09-18T05:42:35;23.30;99.90
2913;DHT22;1466;48.778;9.166;2023-09-18T05:45:02;23.30;99.90
2913;DHT22;1466;48.778;9.166;2023-09-18T05:47:32;23.30;99.90
2913;DHT22;1466;48.778;9.166;2023-09-18T05:49:58;23.30;99.90
2913;DHT22;1466;48.778;9.166;2023-09-18T05:52:23;23.30;99.90
2913;DHT22;1466;48.778;9.166;2023-09-18T05:54:50;23.40;99.90
2913;DHT22;1466;48.778;9.166;2023-09-18T05:57:15;23.30;99.90
2913;DHT22;1466;48.778;9.166;2023-09-18T05:59:42;23.30;99.90
2913;DHT22;1466;48.778;9.166;2023-09-18T06:02:10;23.30;99.90
2913;DHT22;1466;48.778;9.166;2023-09-18T06:04:36;23.30;99.90
2913;DHT22;1466;48.778;9.166;2023-09-18T06:07:03;23.20;99.90
2913;DHT22;1466;48.778;9.166;2023-09-18T06:09:29;23.20;99.90
2913;DHT22;1466;48.778;9.166;2023-09-18T06:11:54;23.30;99.90
2913;DHT22;1466;48.778;9.166;2023-09-18T06:14:20;23.20;99.90
2913;DHT22;1466;48.778;9.166;2023-09-18T06:16:45;23.30;99.90
2913;DHT22;1466;48.778;9.166;2023-09-18T06:19:14;23.30;99.90
2913;DHT22;1466;48.778;9.166;2023-09-18T06:21:40;23.30;99.90
2913;DHT22;1466;48.778;9.166;2023-09-18T06:24:06;23.30;99.90
2913;DHT22;1466;48.778;9.166;2023-09-18T06:26:31;23.20;99.90
2913;DHT22;1466;48.778;9.166;2023-09-18T06:28:57;23.10;99.90
2913;DHT22;1466;48.778;9.166;2023-09-18T06:31:22;23.20;99.90
2913;DHT22;1466;48.778;9.166;2023-09-18T06:33:49;23.10;99.90
2913;DHT22;1466;48.778;9.166;2023-09-18T06:36:14;23.10;99.90
2913;DHT22;1466;48.778;9.166;2023-09-18T06:38:40;23.10;99.90
2913;DHT22;1466;48.778;9.166;2023-09-18T06:41:05;23.00;99.90
2913;DHT22;1466;48.778;9.166;2023-09-18T06:43:31;23.00;99.90
2913;DHT22;1466;48.778;9.166;2023-09-18T06:45:57;23.00;99.90
2913;DHT22;1466;48.778;9.166;2023-09-18T06:48:24;22.90;99.90
2913;DHT22;1466;48.778;9.166;2023-09-18T06:50:49;22.80;99.90
2913;DHT22;1466;48.778;9.166;2023-09-18T06:53:15;22.80;99.90
2913;DHT22;1466;48.778;9.166;2023-09-18T06:55:41;22.80;99.90
2913;DHT22;1466;48.778;9.166;2023-09-18T06:58:06;22.90;99.90
2913;DHT22;1466;48.778;9.166;2023-09-18T07:00:32;22.90;99.90
2913;DHT22;1466;48.778;9.166;2023-09-18T07:02:58;22.90;99.90
2913;DHT22;1466;48.778;9.166;2023-09-18T07:05:23;23.00;99.90
2913;DHT22;1466;48.778;9.166;2023-09-18T07:07:49;23.00;99.90
2913;DHT22;1466;48.778;9.166;2023-09-18T07:10:14;23.00;99.90
2913;DHT22;1466;48.778;9.166;2023-09-18T07:12:40;23.00;99.90
2913;DHT22;1466;48.778;9.166;2023-09-18T07:15:06;23.00;99.90
2913;DHT22;1466;48.778;9.166;2023-09-18T07:17:33;23.10;99.90
2913;DHT22;1466;48.778;9.166;2023-09-18T07:19:58;23.10;99.90
2913;DHT22;1466;48.778;9.166;2023-09-18T07:22:25;23.20;99.90
2913;DHT22;1466;48.778;9.166;2023-09-18T07:24:51;23.30;99.90
2913;DHT22;1466;48.778;9.166;2023-09-18T07:27:16;23.30;99.90
2913;DHT22;1466;48.778;9.166;2023-09-18T07:29:42;23.40;99.90
2913;DHT22;1466;48.778;9.166;2023-09-18T07:32:08;23.40;99.90
2913;DHT22;1466;48.778;9.166;2023-09-18T07:34:34;23.50;99.90
2913;DHT22;1466;48.778;9.166;2023-09-18T07:37:00;23.50;99.90
2913;DHT22;1466;48.778;9.166;2023-09-18T07:39:26;23.50;99.90
2913;DHT22;1466;48.778;9.166;2023-09-18T07:41:51;23.50;99.90
2913;DHT22;1466;48.778;9.166;2023-09-18T07:44:21;23.50;99.90
2913;DHT22;1466;48.778;9.166;2023-09-18T07:46:47;23.50;99.90
2913;DHT22;1466;48.778;9.166;2023-09-18T07:49:13;23.50;99.90
2913;DHT22;1466;48.778;9.166;2023-09-18T07:51:39;23.50;99.90
2913;DHT22;1466;48.778;9.166;2023-09-18T07:54:06;23.60;99.90
2913;DHT22;1466;48.778;9.166;2023-09-18T07:56:32;23.60;99.90
2913;DHT22;1466;48.778;9.166;2023-09-18T07:58:59;23.60;99.90
2913;DHT22;1466;48.778;9.166;2023-09-18T08:01:25;23.60;99.90
2913;DHT22;1466;48.778;9.166;2023-09-18T08:03:51;23.60;99.80
2913;DHT22;1466;48.778;9.166;2023-09-18T08:06:16;23.60;99.90
2913;DHT22;1466;48.778;9.166;2023-09-18T08:08:44;23.60;99.80
2913;DHT22;1466;48.778;9.166;2023-09-18T08:11:10;23.70;99.80
2913;DHT22;1466;48.778;9.166;2023-09-18T08:13:36;23.70;99.70
2913;DHT22;1466;48.778;9.166;2023-09-18T08:16:03;23.60;99.80
2913;DHT22;1466;48.778;9.166;2023-09-18T08:18:29;23.70;99.60
2913;DHT22;1466;48.778;9.166;2023-09-18T08:20:55;23.70;99.60
2913;DHT22;1466;48.778;9.166;2023-09-18T08:23:23;23.70;99.60
2913;DHT22;1466;48.778;9.166;2023-09-18T08:25:49;23.70;99.40
2913;DHT22;1466;48.778;9.166;2023-09-18T08:28:17;23.70;99.30
2913;DHT22;1466;48.778;9.166;2023-09-18T08:30:42;23.60;99.40
2913;DHT22;1466;48.778;9.166;2023-09-18T08:33:13;23.60;99.50
2913;DHT22;1466;48.778;9.166;2023-09-18T08:35:38;23.50;99.50
2913;DHT22;1466;48.778;9.166;2023-09-18T08:38:05;23.50;99.70
2913;DHT22;1466;48.778;9.166;2023-09-18T08:40:31;23.50;99.90
2913;DHT22;1466;48.778;9.166;2023-09-18T08:42:58;23.40;99.90
2913;DHT22;1466;48.778;9.166;2023-09-18T08:45:54;23.40;99.90
2913;DHT22;1466;48.778;9.166;2023-09-18T08:48:23;23.40;99.90
2913;DHT22;1466;48.778;9.166;2023-09-18T08:50:50;23.30;99.90
2913;DHT22;1466;48.778;9.166;2023-09-18T08:53:16;23.20;99.90
2913;DHT22;1466;48.778;9.166;2023-09-18T08:55:42;23.10;99.90
2913;DHT22;1466;48.778;9.166;2023-09-18T08:58:08;23.00;99.90
2913;DHT22;1466;48.778;9.166;2023-09-18T09:00:35;22.90;99.90
2913;DHT22;1466;48.778;9.166;2023-09-18T09:03:02;22.90;99.90
2913;DHT22;1466;48.778;9.166;2023-09-18T09:05:28;22.80;99.90
2913;DHT22;1466;48.778;9.166;2023-09-18T09:07:55;22.80;99.90
2913;DHT22;1466;48.778;9.166;2023-09-18T09:10:20;22.80;99.90
2913;DHT22;1466;48.778;9.166;2023-09-18T09:15:19;22.70;99.90
2913;DHT22;1466;48.778;9.166;2023-09-18T09:17:46;22.70;99.90
2913;DHT22;1466;48.778;9.166;2023-09-18T09:20:13;22.80;99.90
2913;DHT22;1466;48.778;9.166;2023-09-18T09:22:39;22.70;99.90
2913;DHT22;1466;48.778;9.166;2023-09-18T09:27:47;22.80;99.90
2913;DHT22;1466;48.778;9.166;2023-09-18T09:30:29;22.70;99.90
2913;DHT22;1466;48.778;9.166;2023-09-18T09:32:56;22.60;99.90
2913;DHT22;1466;48.778;9.166;2023-09-18T09:35:27;22.60;99.90
2913;DHT22;1466;48.778;9.166;2023-09-18T09:37:58;22.50;99.90
2913;DHT22;1466;48.778;9.166;2023-09-18T09:40:25;22.40;99.90
2913;DHT22;1466;48.778;9.166;2023-09-18T09:42:55;22.40;99.90
2913;DHT22;1466;48.778;9.166;2023-09-18T09:45:27;22.40;99.90
2913;DHT22;1466;48.778;9.166;2023-09-18T09:47:54;22.40;99.90
2913;DHT22;1466;48.778;9.166;2023-09-18T09:50:20;22.40;99.90
2913;DHT22;1466;48.778;9.166;2023-09-18T09:52:51;22.40;99.90
2913;DHT22;1466;48.778;9.166;2023-09-18T09:55:32;22.40;99.90
2913;DHT22;1466;48.778;9.166;2023-09-18T09:58:03;22.50;99.90
2913;DHT22;1466;48.778;9.166;2023-09-18T10:03:06;22.60;99.90
2913;DHT22;1466;48.778;9.166;2023-09-18T10:05:37;22.60;99.90
2913;DHT22;1466;48.778;9.166;2023-09-18T10:08:17;22.70;99.90
2913;DHT22;1466;48.778;9.166;2023-09-18T10:10:51;22.80;99.90
2913;DHT22;1466;48.778;9.166;2023-09-18T10:15:50;22.90;99.90
2913;DHT22;1466;48.778;9.166;2023-09-18T10:18:44;22.90;99.90
2913;DHT22;1466;48.778;9.166;2023-09-18T10:21:26;22.80;99.90
2913;DHT22;1466;48.778;9.166;2023-09-18T10:26:51;22.70;99.90
2913;DHT22;1466;48.778;9.166;2023-09-18T10:29:20;22.70;99.90
2913;DHT22;1466;48.778;9.166;2023-09-18T10:31:48;22.70;99.90
2913;DHT22;1466;48.778;9.166;2023-09-18T10:34:15;22.60;99.90
2913;DHT22;1466;48.778;9.166;2023-09-18T10:36:43;22.60;99.90
2913;DHT22;1466;48.778;9.166;2023-09-18T10:39:10;22.60;99.90
2913;DHT22;1466;48.778;9.166;2023-09-18T10:41:41;22.60;99.90
2913;DHT22;1466;48.778;9.166;2023-09-18T10:44:07;22.50;99.90
2913;DHT22;1466;48.778;9.166;2023-09-18T10:46:34;22.60;99.90
2913;DHT22;1466;48.778;9.166;2023-09-18T10:49:00;22.60;99.90
2913;DHT22;1466;48.778;9.166;2023-09-18T10:51:27;22.70;99.90
2913;DHT22;1466;48.778;9.166;2023-09-18T10:53:54;22.70;99.90
2913;DHT22;1466;48.778;9.166;2023-09-18T10:56:21;22.70;99.90
2913;DHT22;1466;48.778;9.166;2023-09-18T10:58:55;22.70;99.90
2913;DHT22;1466;48.778;9.166;2023-09-18T11:01:23;22.60;99.90
2913;DHT22;1466;48.778;9.166;2023-09-18T11:03:50;22.60;99.90
2913;DHT22;1466;48.778;9.166;2023-09-18T11:06:16;22.50;99.90
2913;DHT22;1466;48.778;9.166;2023-09-18T11:08:45;22.50;99.90
2913;DHT22;1466;48.778;9.166;2023-09-18T11:11:12;22.40;99.90
2913;DHT22;1466;48.778;9.166;2023-09-18T11:16:18;22.50;99.90
2913;DHT22;1466;48.778;9.166;2023-09-18T11:18:47;22.40;99.90
2913;DHT22;1466;48.778;9.166;2023-09-18T11:21:15;22.40;99.90
2913;DHT22;1466;48.778;9.166;2023-09-18T11:23:43;22.40;99.90
2913;DHT22;1466;48.778;9.166;2023-09-18T11:26:10;22.50;99.90
2913;DHT22;1466;48.778;9.166;2023-09-18T11:28:37;22.50;99.90
2913;DHT22;1466;48.778;9.166;2023-09-18T11:31:03;22.50;99.90
2913;DHT22;1466;48.778;9.166;2023-09-18T11:33:37;22.60;99.90
2913;DHT22;1466;48.778;9.166;2023-09-18T11:38:47;22.60;99.90
2913;DHT22;1466;48.778;9.166;2023-09-18T11:41:23;22.60;99.90
2913;DHT22;1466;48.778;9.166;2023-09-18T11:43:51;22.70;99.90
2913;DHT22;1466;48.778;9.166;2023-09-18T11:46:20;22.70;99.90
2913;DHT22;1466;48.778;9.166;2023-09-18T11:48:49;22.70;99.90
2913;DHT22;1466;48.778;9.166;2023-09-18T11:51:22;22.70;99.90
2913;DHT22;1466;48.778;9.166;2023-09-18T11:53:51;22.70;99.90
2913;DHT22;1466;48.778;9.166;2023-09-18T11:56:18;22.80;99.90
2913;DHT22;1466;48.778;9.166;2023-09-18T11:58:48;22.80;99.90
2913;DHT22;1466;48.778;9.166;2023-09-18T12:01:14;22.90;99.90
2913;DHT22;1466;48.778;9.166;2023-09-18T12:03:41;23.00;99.90
2913;DHT22;1466;48.778;9.166;2023-09-18T12:06:06;23.00;99.90
2913;DHT22;1466;48.778;9.166;2023-09-18T12:08:35;23.00;99.90
2913;DHT22;1466;48.778;9.166;2023-09-18T12:11:04;23.00;99.90
2913;DHT22;1466;48.778;9.166;2023-09-18T12:13:33;23.00;99.90
2913;DHT22;1466;48.778;9.166;2023-09-18T12:16:00;22.90;99.90
2913;DHT22;1466;48.778;9.166;2023-09-18T12:18:27;23.00;99.90
2913;DHT22;1466;48.778;9.166;2023-09-18T12:20:55;23.00;99.90
2913;DHT22;1466;48.778;9.166;2023-09-18T12:23:21;23.00;99.90
2913;DHT22;1466;48.778;9.166;2023-09-18T12:25:50;23.00;99.90
2913;DHT22;1466;48.778;9.166;2023-09-18T12:28:16;22.90;99.90
2913;DHT22;1466;48.778;9.166;2023-09-18T12:30:45;22.90;99.90
2913;DHT22;1466;48.778;9.166;2023-09-18T12:33:12;22.90;99.90
2913;DHT22;1466;48.778;9.166;2023-09-18T12:35:40;23.00;99.90
2913;DHT22;1466;48.778;9.166;2023-09-18T12:38:17;23.10;99.90
2913;DHT22;1466;48.778;9.166;2023-09-18T12:40:45;23.10;99.90
2913;DHT22;1466;48.778;9.166;2023-09-18T12:43:12;23.20;99.90
2913;DHT22;1466;48.778;9.166;2023-09-18T12:45:41;23.30;99.90
2913;DHT22;1466;48.778;9.166;2023-09-18T12:48:07;23.40;99.90
2913;DHT22;1466;48.778;9.166;2023-09-18T12:50:34;23.60;99.90
2913;DHT22;1466;48.778;9.166;2023-09-18T12:53:13;23.70;99.90
2913;DHT22;1466;48.778;9.166;2023-09-18T12:55:39;23.80;99.90
2913;DHT22;1466;48.778;9.166;2023-09-18T12:58:05;24.00;99.90
2913;DHT22;1466;48.778;9.166;2023-09-18T13:00:34;24.10;99.90
2913;DHT22;1466;48.778;9.166;2023-09-18T13:03:00;24.10;99.90
2913;DHT22;1466;48.778;9.166;2023-09-18T13:05:26;24.20;99.90
2913;DHT22;1466;48.778;9.166;2023-09-18T13:07:53;24.30;99.90
2913;DHT22;1466;48.778;9.166;2023-09-18T13:10:19;24.40;99.90
2913;DHT22;1466;48.778;9.166;2023-09-18T13:12:49;24.30;99.90
2913;DHT22;1466;48.778;9.166;2023-09-18T13:17:53;24.40;99.90
2913;DHT22;1466;48.778;9.166;2023-09-18T13:20:23;24.30;99.90
2913;DHT22;1466;48.778;9.166;2023-09-18T13:22:53;24.50;99.90
2913;DHT22;1466;48.778;9.166;2023-09-18T13:25:26;24.50;99.90
2913;DHT22;1466;48.778;9.166;2023-09-18T13:27:53;24.50;99.90
2913;DHT22;1466;48.778;9.166;2023-09-18T13:30:20;24.50;99.90
2913;DHT22;1466;48.778;9.166;2023-09-18T13:32:46;24.50;99.90
2913;DHT22;1466;48.778;9.166;2023-09-18T13:35:16;24.50;99.90
2913;DHT22;1466;48.778;9.166;2023-09-18T13:37:42;24.50;99.90
2913;DHT22;1466;48.778;9.166;2023-09-18T13:40:09;24.60;99.90
2913;DHT22;1466;48.778;9.166;2023-09-18T13:42:36;24.70;99.90
2913;DHT22;1466;48.778;9.166;2023-09-18T13:45:02;24.80;99.80
2913;DHT22;1466;48.778;9.166;2023-09-18T13:47:32;24.90;99.50
2913;DHT22;1466;48.778;9.166;2023-09-18T13:49:59;24.90;99.40
2913;DHT22;1466;48.778;9.166;2023-09-18T13:52:32;24.70;99.20
2913;DHT22;1466;48.778;9.166;2023-09-18T13:54:58;24.70;99.40
2913;DHT22;1466;48.778;9.166;2023-09-18T13:57:24;24.60;99.40
2913;DHT22;1466;48.778;9.166;2023-09-18T13:59:51;24.70;99.50
2913;DHT22;1466;48.778;9.166;2023-09-18T14:02:18;24.70;99.40
2913;DHT22;1466;48.778;9.166;2023-09-18T14:04:44;24.80;99.20
2913;DHT22;1466;48.778;9.166;2023-09-18T14:07:11;24.80;99.00
2913;DHT22;1466;48.778;9.166;2023-09-18T14:09:37;24.90;99.00
2913;DHT22;1466;48.778;9.166;2023-09-18T14:12:04;24.90;98.80
2913;DHT22;1466;48.778;9.166;2023-09-18T14:14:32;24.80;98.70
2913;DHT22;1466;48.778;9.166;2023-09-18T14:16:58;24.80;98.70
2913;DHT22;1466;48.778;9.166;2023-09-18T14:19:24;24.70;98.60
2913;DHT22;1466;48.778;9.166;2023-09-18T14:21:51;24.70;98.50
2913;DHT22;1466;48.778;9.166;2023-09-18T14:24:17;24.80;98.40
2913;DHT22;1466;48.778;9.166;2023-09-18T14:26:50;24.70;98.20
2913;DHT22;1466;48.778;9.166;2023-09-18T14:29:16;24.70;98.30
2913;DHT22;1466;48.778;9.166;2023-09-18T14:31:41;24.70;98.00
2913;DHT22;1466;48.778;9.166;2023-09-18T14:34:07;24.70;97.90
2913;DHT22;1466;48.778;9.166;2023-09-18T14:36:34;24.70;97.80
2913;DHT22;1466;48.778;9.166;2023-09-18T14:39:01;24.80;97.60
2913;DHT22;1466;48.778;9.166;2023-09-18T14:41:27;24.90;97.50
2913;DHT22;1466;48.778;9.166;2023-09-18T14:43:53;24.90;97.40
2913;DHT22;1466;48.778;9.166;2023-09-18T14:46:19;24.80;97.40
2913;DHT22;1466;48.778;9.166;2023-09-18T14:48:45;24.80;97.40
2913;DHT22;1466;48.778;9.166;2023-09-18T14:51:11;24.90;97.30
2913;DHT22;1466;48.778;9.166;2023-09-18T14:53:37;25.00;97.10
2913;DHT22;1466;48.778;9.166;2023-09-18T14:56:03;25.10;97.10
2913;DHT22;1466;48.778;9.166;2023-09-18T14:58:29;25.00;96.80
2913;DHT22;1466;48.778;9.166;2023-09-18T15:00:56;25.10;96.80
2913;DHT22;1466;48.778;9.166;2023-09-18T15:03:22;25.10;96.40
2913;DHT22;1466;48.778;9.166;2023-09-18T15:05:50;25.10;96.40
2913;DHT22;1466;48.778;9.166;2023-09-18T15:08:16;25.00;96.30
2913;DHT22;1466;48.778;9.166;2023-09-18T15:10:43;24.90;96.50
2913;DHT22;1466;48.778;9.166;2023-09-18T15:13:09;24.90;96.50
2913;DHT22;1466;48.778;9.166;2023-09-18T15:15:34;24.80;96.80
2913;DHT22;1466;48.778;9.166;2023-09-18T15:18:01;24.70;96.50
2913;DHT22;1466;48.778;9.166;2023-09-18T15:20:27;24.70;96.60
2913;DHT22;1466;48.778;9.166;2023-09-18T15:22:52;24.70;96.70
2913;DHT22;1466;48.778;9.166;2023-09-18T15:25:21;24.70;96.60
2913;DHT22;1466;48.778;9.166;2023-09-18T15:27:47;24.70;96.70
2913;DHT22;1466;48.778;9.166;2023-09-18T15:30:12;24.70;96.70
2913;DHT22;1466;48.778;9.166;2023-09-18T15:32:58;24.60;96.60
2913;DHT22;1466;48.778;9.166;2023-09-18T15:35:25;24.60;96.50
2913;DHT22;1466;48.778;9.166;2023-09-18T15:37:51;24.60;96.50
2913;DHT22;1466;48.778;9.166;2023-09-18T15:40:18;24.60;96.50
2913;DHT22;1466;48.778;9.166;2023-09-18T15:42:49;24.60;96.60
2913;DHT22;1466;48.778;9.166;2023-09-18T15:45:15;24.60;96.50
2913;DHT22;1466;48.778;9.166;2023-09-18T15:47:41;24.70;96.50
2913;DHT22;1466;48.778;9.166;2023-09-18T15:50:08;24.70;96.40
2913;DHT22;1466;48.778;9.166;2023-09-18T15:52:35;24.70;96.30
2913;DHT22;1466;48.778;9.166;2023-09-18T15:55:01;24.70;96.40
2913;DHT22;1466;48.778;9.166;2023-09-18T15:57:29;24.70;96.20
2913;DHT22;1466;48.778;9.166;2023-09-18T15:59:55;24.70;96.30
2913;DHT22;1466;48.778;9.166;2023-09-18T16:02:21;24.70;96.20
2913;DHT22;1466;48.778;9.166;2023-09-18T16:04:46;24.60;96.10
2913;DHT22;1466;48.778;9.166;2023-09-18T16:07:12;24.50;96.10
2913;DHT22;1466;48.778;9.166;2023-09-18T16:09:39;24.40;96.50
2913;DHT22;1466;48.778;9.166;2023-09-18T16:12:04;24.30;96.20
2913;DHT22;1466;48.778;9.166;2023-09-18T16:14:32;24.20;96.30
2913;DHT22;1466;48.778;9.166;2023-09-18T16:16:58;24.20;96.50
2913;DHT22;1466;48.778;9.166;2023-09-18T16:19:27;24.10;96.40
2913;DHT22;1466;48.778;9.166;2023-09-18T16:21:53;24.10;96.50
2913;DHT22;1466;48.778;9.166;2023-09-18T16:24:19;24.00;96.60